sensor_id;sensor_type;location;lat;lon;timestamp;pressure;altitude;pressure_sealevel;temperature;humidity
25430;BME280;13360;48.152;-1.788;2022-12-29T00:02:03;101881.22;;;13.02;100.00
25430;BME280;13360;48.152;-1.788;2022-12-29T00:04:29;101861.28;;;12.95;100.00
25430;BME280;13360;48.152;-1.788;2022-12-29T00:06:54;101859.84;;;13.02;100.00
25430;BME280;13360;48.152;-1.788;2022-12-29T00:09:19;101856.75;;;13.09;100.00
25430;BME280;13360;48.152;-1.788;2022-12-29T00:11:45;101829.63;;;13.01;100.00
25430;BME280;13360;48.152;-1.788;2022-12-29T00:14:11;101820.78;;;12.99;100.00
25430;BME280;13360;48.152;-1.788;2022-12-29T00:16:56;101811.03;;;13.01;100.00
25430;BME280;13360;48.152;-1.788;2022-12-29T00:19:22;101805.75;;;13.05;100.00
25430;BME280;13360;48.152;-1.788;2022-12-29T00:22:06;101799.34;;;13.09;100.00
25430;BME280;13360;48.152;-1.788;2022-12-29T00:24:50;101771.06;;;13.07;100.00
25430;BME280;13360;48.152;-1.788;2022-12-29T00:27:31;101771.59;;;13.09;100.00
25430;BME280;13360;48.152;-1.788;2022-12-29T00:30:17;101757.00;;;12.99;100.00
25430;BME280;13360;48.152;-1.788;2022-12-29T00:33:16;101760.53;;;13.04;100.00
25430;BME280;13360;48.152;-1.788;2022-12-29T00:36:04;101753.94;;;13.00;100.00
25430;BME280;13360;48.152;-1.788;2022-12-29T00:38:35;101757.25;;;13.02;100.00
25430;BME280;13360;48.152;-1.788;2022-12-29T00:41:20;101740.34;;;12.99;100.00
25430;BME280;13360;48.152;-1.788;2022-12-29T00:44:04;101727.38;;;12.89;100.00
25430;BME280;13360;48.152;-1.788;2022-12-29T00:46:30;101744.00;;;12.94;100.00
25430;BME280;13360;48.152;-1.788;2022-12-29T00:48:56;101737.91;;;12.92;100.00
25430;BME280;13360;48.152;-1.788;2022-12-29T00:51:40;101727.66;;;12.88;100.00
25430;BME280;13360;48.152;-1.788;2022-12-29T00:54:05;101719.88;;;12.95;100.00
25430;BME280;13360;48.152;-1.788;2022-12-29T00:56:31;101704.91;;;12.91;100.00
25430;BME280;13360;48.152;-1.788;2022-12-29T00:59:00;101693.81;;;12.91;100.00
25430;BME280;13360;48.152;-1.788;2022-12-29T01:01:25;101672.84;;;12.79;100.00
25430;BME280;13360;48.152;-1.788;2022-12-29T01:03:51;101689.72;;;12.83;100.00
25430;BME280;13360;48.152;-1.788;2022-12-29T01:06:17;101678.34;;;12.85;100.00
25430;BME280;13360;48.152;-1.788;2022-12-29T01:08:42;101683.84;;;12.90;100.00
25430;BME280;13360;48.152;-1.788;2022-12-29T01:11:10;101647.69;;;12.66;100.00
25430;BME280;13360;48.152;-1.788;2022-12-29T01:13:37;101676.19;;;12.76;100.00
25430;BME280;13360;48.152;-1.788;2022-12-29T01:16:04;101681.34;;;12.88;100.00
25430;BME280;13360;48.152;-1.788;2022-12-29T01:18:30;101644.88;;;12.76;100.00
25430;BME280;13360;48.152;-1.788;2022-12-29T01:21:06;101648.97;;;12.83;100.00
25430;BME280;13360;48.152;-1.788;2022-12-29T01:23:31;101648.41;;;12.81;100.00
25430;BME280;13360;48.152;-1.788;2022-12-29T01:25:57;101648.97;;;12.83;100.00
25430;BME280;13360;48.152;-1.788;2022-12-29T01:28:32;101624.94;;;12.74;100.00
25430;BME280;13360;48.152;-1.788;2022-12-29T01:31:00;101619.09;;;12.75;100.00
25430;BME280;13360;48.152;-1.788;2022-12-29T01:33:25;101638.97;;;12.82;100.00
25430;BME280;13360;48.152;-1.788;2022-12-29T01:35:50;101587.19;;;12.44;100.00
25430;BME280;13360;48.152;-1.788;2022-12-29T01:38:16;101585.38;;;12.63;100.00
25430;BME280;13360;48.152;-1.788;2022-12-29T01:40:47;101582.00;;;12.71;100.00
25430;BME280;13360;48.152;-1.788;2022-12-29T01:43:13;101575.50;;;12.81;100.00
25430;BME280;13360;48.152;-1.788;2022-12-29T01:45:44;101534.38;;;12.64;100.00
25430;BME280;13360;48.152;-1.788;2022-12-29T01:48:11;101521.91;;;12.62;100.00
25430;BME280;13360;48.152;-1.788;2022-12-29T01:50:50;101482.28;;;12.61;100.00
25430;BME280;13360;48.152;-1.788;2022-12-29T01:53:25;101470.44;;;12.56;100.00
25430;BME280;13360;48.152;-1.788;2022-12-29T01:55:55;101451.94;;;12.46;100.00
25430;BME280;13360;48.152;-1.788;2022-12-29T01:58:24;101469.50;;;12.65;100.00
25430;BME280;13360;48.152;-1.788;2022-12-29T02:00:52;101443.78;;;12.60;100.00
25430;BME280;13360;48.152;-1.788;2022-12-29T02:03:19;101424.97;;;12.57;100.00
25430;BME280;13360;48.152;-1.788;2022-12-29T02:05:56;101411.13;;;12.57;100.00
25430;BME280;13360;48.152;-1.788;2022-12-29T02:08:26;101404.75;;;12.56;100.00
25430;BME280;13360;48.152;-1.788;2022-12-29T02:10:52;101400.34;;;12.55;100.00
25430;BME280;13360;48.152;-1.788;2022-12-29T02:13:18;101376.53;;;12.54;100.00
25430;BME280;13360;48.152;-1.788;2022-12-29T02:21:56;101354.16;;;12.45;100.00
25430;BME280;13360;48.152;-1.788;2022-12-29T02:32:54;101350.31;;;12.65;100.00
25430;BME280;13360;48.152;-1.788;2022-12-29T02:35:34;101337.75;;;12.49;100.00
25430;BME280;13360;48.152;-1.788;2022-12-29T02:43:23;101350.03;;;12.43;100.00
25430;BME280;13360;48.152;-1.788;2022-12-29T02:46:21;101352.28;;;12.41;100.00
25430;BME280;13360;48.152;-1.788;2022-12-29T02:51:54;101387.41;;;12.45;100.00
25430;BME280;13360;48.152;-1.788;2022-12-29T02:54:22;101379.97;;;12.41;100.00
25430;BME280;13360;48.152;-1.788;2022-12-29T02:57:28;101417.03;;;12.50;100.00
25430;BME280;13360;48.152;-1.788;2022-12-29T03:00:12;101402.97;;;12.41;100.00
25430;BME280;13360;48.152;-1.788;2022-12-29T03:16:20;101520.50;;;12.35;100.00
25430;BME280;13360;48.152;-1.788;2022-12-29T03:19:17;101543.72;;;12.39;100.00
25430;BME280;13360;48.152;-1.788;2022-12-29T03:21:51;101564.72;;;12.45;100.00
25430;BME280;13360;48.152;-1.788;2022-12-29T03:24:40;101572.88;;;12.32;100.00
25430;BME280;13360;48.152;-1.788;2022-12-29T03:27:10;101586.19;;;12.30;100.00
25430;BME280;13360;48.152;-1.788;2022-12-29T03:29:43;101588.41;;;12.28;100.00
25430;BME280;13360;48.152;-1.788;2022-12-29T03:32:10;101575.13;;;12.25;100.00
25430;BME280;13360;48.152;-1.788;2022-12-29T03:34:37;101574.84;;;12.26;100.00
25430;BME280;13360;48.152;-1.788;2022-12-29T03:37:10;101595.09;;;12.21;100.00
25430;BME280;13360;48.152;-1.788;2022-12-29T03:39:37;101587.41;;;12.13;100.00
25430;BME280;13360;48.152;-1.788;2022-12-29T03:42:05;101576.38;;;12.08;100.00
25430;BME280;13360;48.152;-1.788;2022-12-29T03:44:39;101584.63;;;12.13;100.00
25430;BME280;13360;48.152;-1.788;2022-12-29T03:47:06;101559.75;;;12.03;100.00
25430;BME280;13360;48.152;-1.788;2022-12-29T03:49:32;101585.13;;;12.20;100.00
25430;BME280;13360;48.152;-1.788;2022-12-29T03:51:58;101568.53;;;12.20;100.00
25430;BME280;13360;48.152;-1.788;2022-12-29T03:54:24;101519.88;;;12.09;100.00
25430;BME280;13360;48.152;-1.788;2022-12-29T03:56:49;101503.25;;;12.09;100.00
25430;BME280;13360;48.152;-1.788;2022-12-29T03:59:14;101506.22;;;12.18;100.00
25430;BME280;13360;48.152;-1.788;2022-12-29T04:01:40;101472.94;;;12.23;100.00
25430;BME280;13360;48.152;-1.788;2022-12-29T04:04:05;101454.66;;;12.22;100.00
25430;BME280;13360;48.152;-1.788;2022-12-29T04:06:30;101444.41;;;12.23;100.00
25430;BME280;13360;48.152;-1.788;2022-12-29T04:08:56;101434.50;;;12.16;100.00
25430;BME280;13360;48.152;-1.788;2022-12-29T04:11:22;101420.19;;;12.09;100.00
25430;BME280;13360;48.152;-1.788;2022-12-29T04:13:47;101425.16;;;12.07;100.00
25430;BME280;13360;48.152;-1.788;2022-12-29T04:16:13;101436.22;;;12.07;100.00
25430;BME280;13360;48.152;-1.788;2022-12-29T04:18:38;101442.28;;;12.14;100.00
25430;BME280;13360;48.152;-1.788;2022-12-29T04:21:04;101434.56;;;12.11;100.00
25430;BME280;13360;48.152;-1.788;2022-12-29T04:23:31;101417.44;;;12.04;100.00
25430;BME280;13360;48.152;-1.788;2022-12-29T04:25:57;101463.28;;;12.20;100.00
25430;BME280;13360;48.152;-1.788;2022-12-29T04:28:23;101473.75;;;12.29;100.00
25430;BME280;13360;48.152;-1.788;2022-12-29T04:30:49;101452.13;;;12.26;100.00
25430;BME280;13360;48.152;-1.788;2022-12-29T04:33:14;101452.13;;;12.31;100.00
25430;BME280;13360;48.152;-1.788;2022-12-29T04:35:40;101450.25;;;12.21;100.00
25430;BME280;13360;48.152;-1.788;2022-12-29T04:38:05;101455.50;;;12.23;100.00
25430;BME280;13360;48.152;-1.788;2022-12-29T04:40:30;101471.00;;;12.24;100.00
25430;BME280;13360;48.152;-1.788;2022-12-29T04:42:56;101446.78;;;12.05;100.00
25430;BME280;13360;48.152;-1.788;2022-12-29T04:45:21;101497.66;;;12.14;100.00
25430;BME280;13360;48.152;-1.788;2022-12-29T04:47:47;101495.72;;;12.15;100.00
25430;BME280;13360;48.152;-1.788;2022-12-29T04:50:12;101525.31;;;12.19;100.00
25430;BME280;13360;48.152;-1.788;2022-12-29T04:52:38;101502.69;;;12.12;100.00
25430;BME280;13360;48.152;-1.788;2022-12-29T04:55:04;101462.41;;;11.91;100.00
25430;BME280;13360;48.152;-1.788;2022-12-29T04:57:29;101490.59;;;11.98;100.00
25430;BME280;13360;48.152;-1.788;2022-12-29T04:59:55;101504.69;;;12.02;100.00
25430;BME280;13360;48.152;-1.788;2022-12-29T05:02:20;101506.13;;;11.94;100.00
25430;BME280;13360;48.152;-1.788;2022-12-29T05:04:46;101501.38;;;12.00;100.00
25430;BME280;13360;48.152;-1.788;2022-12-29T05:07:11;101459.69;;;11.81;100.00
25430;BME280;13360;48.152;-1.788;2022-12-29T05:09:37;101494.50;;;11.92;100.00
25430;BME280;13360;48.152;-1.788;2022-12-29T05:12:02;101475.66;;;11.94;100.00
25430;BME280;13360;48.152;-1.788;2022-12-29T05:14:28;101468.19;;;11.95;100.00
25430;BME280;13360;48.152;-1.788;2022-12-29T05:16:53;101470.63;;;12.01;100.00
25430;BME280;13360;48.152;-1.788;2022-12-29T05:19:19;101458.19;;;11.99;100.00
25430;BME280;13360;48.152;-1.788;2022-12-29T05:21:44;101463.97;;;12.02;100.00
25430;BME280;13360;48.152;-1.788;2022-12-29T05:24:09;101456.72;;;12.06;100.00
25430;BME280;13360;48.152;-1.788;2022-12-29T05:26:35;101446.78;;;12.05;100.00
25430;BME280;13360;48.152;-1.788;2022-12-29T05:29:00;101440.69;;;12.03;100.00
25430;BME280;13360;48.152;-1.788;2022-12-29T05:31:27;101444.88;;;12.01;100.00
25430;BME280;13360;48.152;-1.788;2022-12-29T05:33:52;101447.41;;;11.97;100.00
25430;BME280;13360;48.152;-1.788;2022-12-29T05:36:18;101468.16;;;12.00;100.00
25430;BME280;13360;48.152;-1.788;2022-12-29T05:38:43;101459.41;;;11.87;100.00
25430;BME280;13360;48.152;-1.788;2022-12-29T05:41:08;101467.44;;;11.84;100.00
25430;BME280;13360;48.152;-1.788;2022-12-29T05:43:34;101476.25;;;11.91;100.00
25430;BME280;13360;48.152;-1.788;2022-12-29T05:45:59;101468.78;;;11.92;100.00
25430;BME280;13360;48.152;-1.788;2022-12-29T05:48:25;101470.72;;;11.91;100.00
25430;BME280;13360;48.152;-1.788;2022-12-29T05:50:51;101461.59;;;11.85;100.00
25430;BME280;13360;48.152;-1.788;2022-12-29T05:53:17;101465.78;;;11.83;100.00
25430;BME280;13360;48.152;-1.788;2022-12-29T05:55:43;101470.19;;;11.84;100.00
25430;BME280;13360;48.152;-1.788;2022-12-29T05:58:09;101468.25;;;11.84;100.00
25430;BME280;13360;48.152;-1.788;2022-12-29T06:00:35;101465.78;;;11.83;100.00
25430;BME280;13360;48.152;-1.788;2022-12-29T06:03:00;101461.09;;;11.78;100.00
25430;BME280;13360;48.152;-1.788;2022-12-29T06:05:25;101456.69;;;11.72;100.00
25430;BME280;13360;48.152;-1.788;2022-12-29T06:07:51;101465.78;;;11.78;100.00
25430;BME280;13360;48.152;-1.788;2022-12-29T06:10:16;101475.78;;;11.79;100.00
25430;BME280;13360;48.152;-1.788;2022-12-29T06:12:42;101453.69;;;11.69;100.00
25430;BME280;13360;48.152;-1.788;2022-12-29T06:15:07;101473.84;;;11.74;100.00
25430;BME280;13360;48.152;-1.788;2022-12-29T06:17:33;101491.81;;;11.77;100.00
25430;BME280;13360;48.152;-1.788;2022-12-29T06:19:58;101472.47;;;11.72;100.00
25430;BME280;13360;48.152;-1.788;2022-12-29T06:22:24;101459.50;;;11.67;100.00
25430;BME280;13360;48.152;-1.788;2022-12-29T06:24:49;101458.94;;;11.65;100.00
25430;BME280;13360;48.152;-1.788;2022-12-29T06:27:14;101448.97;;;11.64;100.00
25430;BME280;13360;48.152;-1.788;2022-12-29T06:29:40;101461.69;;;11.65;100.00
25430;BME280;13360;48.152;-1.788;2022-12-29T06:32:06;101448.16;;;11.64;100.00
25430;BME280;13360;48.152;-1.788;2022-12-29T06:34:31;101440.38;;;11.66;100.00
25430;BME280;13360;48.152;-1.788;2022-12-29T06:36:57;101431.31;;;11.60;100.00
25430;BME280;13360;48.152;-1.788;2022-12-29T06:39:23;101428.78;;;11.64;100.00
25430;BME280;13360;48.152;-1.788;2022-12-29T06:41:49;101426.03;;;11.64;100.00
25430;BME280;13360;48.152;-1.788;2022-12-29T06:44:16;101422.13;;;11.65;100.00
25430;BME280;13360;48.152;-1.788;2022-12-29T06:46:41;101409.47;;;11.58;100.00
25430;BME280;13360;48.152;-1.788;2022-12-29T06:49:07;101404.22;;;11.57;100.00
25430;BME280;13360;48.152;-1.788;2022-12-29T06:51:32;101390.19;;;11.48;100.00
25430;BME280;13360;48.152;-1.788;2022-12-29T06:53:57;101392.41;;;11.46;100.00
25430;BME280;13360;48.152;-1.788;2022-12-29T06:56:22;101402.66;;;11.46;100.00
25430;BME280;13360;48.152;-1.788;2022-12-29T06:58:48;101409.56;;;11.43;100.00
25430;BME280;13360;48.152;-1.788;2022-12-29T07:01:13;101398.56;;;11.33;100.00
25430;BME280;13360;48.152;-1.788;2022-12-29T07:03:41;101400.22;;;11.34;100.00
25430;BME280;13360;48.152;-1.788;2022-12-29T07:06:07;101420.94;;;11.37;100.00
25430;BME280;13360;48.152;-1.788;2022-12-29T07:08:32;101435.06;;;11.35;100.00
25430;BME280;13360;48.152;-1.788;2022-12-29T07:10:57;101467.94;;;11.47;100.00
25430;BME280;13360;48.152;-1.788;2022-12-29T07:13:23;101471.78;;;11.51;100.00
25430;BME280;13360;48.152;-1.788;2022-12-29T07:15:48;101437.00;;;11.35;100.00
25430;BME280;13360;48.152;-1.788;2022-12-29T07:18:13;101446.63;;;11.42;100.00
25430;BME280;13360;48.152;-1.788;2022-12-29T07:20:39;101453.25;;;11.46;100.00
25430;BME280;13360;48.152;-1.788;2022-12-29T07:23:04;101458.50;;;11.48;100.00
25430;BME280;13360;48.152;-1.788;2022-12-29T07:25:29;101440.56;;;11.40;100.00
25430;BME280;13360;48.152;-1.788;2022-12-29T07:27:55;101447.78;;;11.36;100.00
25430;BME280;13360;48.152;-1.788;2022-12-29T07:30:20;101446.16;;;11.30;100.00
25430;BME280;13360;48.152;-1.788;2022-12-29T07:32:45;101467.41;;;11.35;100.00
25430;BME280;13360;48.152;-1.788;2022-12-29T07:35:11;101477.13;;;11.32;100.00
25430;BME280;13360;48.152;-1.788;2022-12-29T07:37:36;101488.97;;;11.38;100.00
25430;BME280;13360;48.152;-1.788;2022-12-29T07:40:03;101489.50;;;11.40;100.00
25430;BME280;13360;48.152;-1.788;2022-12-29T07:42:28;101490.63;;;11.39;100.00
25430;BME280;13360;48.152;-1.788;2022-12-29T07:44:54;101471.59;;;11.32;100.00
25430;BME280;13360;48.152;-1.788;2022-12-29T07:47:19;101455.66;;;11.09;100.00
25430;BME280;13360;48.152;-1.788;2022-12-29T07:49:44;101497.34;;;11.17;100.00
25430;BME280;13360;48.152;-1.788;2022-12-29T07:52:10;101527.47;;;11.29;100.00
25430;BME280;13360;48.152;-1.788;2022-12-29T07:54:35;101528.28;;;11.29;100.00
25430;BME280;13360;48.152;-1.788;2022-12-29T07:57:00;101530.53;;;11.27;100.00
25430;BME280;13360;48.152;-1.788;2022-12-29T07:59:26;101523.34;;;11.16;100.00
25430;BME280;13360;48.152;-1.788;2022-12-29T08:01:51;101550.69;;;11.28;100.00
25430;BME280;13360;48.152;-1.788;2022-12-29T08:04:17;101554.03;;;11.20;100.00
25430;BME280;13360;48.152;-1.788;2022-12-29T08:06:42;101567.03;;;11.24;100.00
25430;BME280;13360;48.152;-1.788;2022-12-29T08:09:08;101551.31;;;11.10;100.00
25430;BME280;13360;48.152;-1.788;2022-12-29T08:11:33;101592.78;;;11.10;100.00
25430;BME280;13360;48.152;-1.788;2022-12-29T08:13:59;101620.41;;;11.20;100.00
25430;BME280;13360;48.152;-1.788;2022-12-29T08:16:24;101622.59;;;11.23;100.00
25430;BME280;13360;48.152;-1.788;2022-12-29T08:18:49;101625.38;;;11.28;100.00
25430;BME280;13360;48.152;-1.788;2022-12-29T08:21:15;101620.13;;;11.26;100.00
25430;BME280;13360;48.152;-1.788;2022-12-29T08:23:40;101610.16;;;11.20;100.00
25430;BME280;13360;48.152;-1.788;2022-12-29T08:26:06;101622.88;;;11.21;100.00
25430;BME280;13360;48.152;-1.788;2022-12-29T08:28:32;101625.94;;;11.15;100.00
25430;BME280;13360;48.152;-1.788;2022-12-29T08:30:59;101631.19;;;11.16;100.00
25430;BME280;13360;48.152;-1.788;2022-12-29T08:33:25;101657.72;;;11.27;100.00
25430;BME280;13360;48.152;-1.788;2022-12-29T08:35:51;101648.59;;;11.27;100.00
25430;BME280;13360;48.152;-1.788;2022-12-29T08:38:16;101645.84;;;11.27;100.00
25430;BME280;13360;48.152;-1.788;2022-12-29T08:40:43;101659.38;;;11.34;100.00
25430;BME280;13360;48.152;-1.788;2022-12-29T08:43:08;101661.03;;;11.35;100.00
25430;BME280;13360;48.152;-1.788;2022-12-29T08:45:33;101661.84;;;11.35;100.00
25430;BME280;13360;48.152;-1.788;2022-12-29T08:47:59;101641.41;;;11.31;100.00
25430;BME280;13360;48.152;-1.788;2022-12-29T08:50:24;101640.59;;;11.30;100.00
25430;BME280;13360;48.152;-1.788;2022-12-29T08:52:50;101643.88;;;11.33;100.00
25430;BME280;13360;48.152;-1.788;2022-12-29T08:55:15;101637.81;;;11.30;100.00
25430;BME280;13360;48.152;-1.788;2022-12-29T08:57:40;101624.53;;;11.27;100.00
25430;BME280;13360;48.152;-1.788;2022-12-29T09:00:06;101617.63;;;11.20;100.00
25430;BME280;13360;48.152;-1.788;2022-12-29T09:02:32;101636.69;;;11.32;100.00
25430;BME280;13360;48.152;-1.788;2022-12-29T09:04:57;101612.66;;;11.17;100.00
25430;BME280;13360;48.152;-1.788;2022-12-29T09:07:24;101618.19;;;11.22;100.00
25430;BME280;13360;48.152;-1.788;2022-12-29T09:09:49;101621.50;;;11.19;100.00
25430;BME280;13360;48.152;-1.788;2022-12-29T09:12:16;101615.16;;;11.18;100.00
25430;BME280;13360;48.152;-1.788;2022-12-29T09:14:42;101646.66;;;11.33;100.00
25430;BME280;13360;48.152;-1.788;2022-12-29T09:17:08;101669.31;;;11.40;100.00
25430;BME280;13360;48.152;-1.788;2022-12-29T09:19:53;101684.78;;;11.51;100.00
25430;BME280;13360;48.152;-1.788;2022-12-29T09:22:18;101703.88;;;11.57;100.00
25430;BME280;13360;48.152;-1.788;2022-12-29T09:24:43;101727.66;;;11.69;100.00
25430;BME280;13360;48.152;-1.788;2022-12-29T09:27:09;101714.34;;;11.71;100.00
25430;BME280;13360;48.152;-1.788;2022-12-29T09:29:34;101715.47;;;11.80;100.00
25430;BME280;13360;48.152;-1.788;2022-12-29T09:31:59;101696.63;;;11.77;100.00
25430;BME280;13360;48.152;-1.788;2022-12-29T09:34:25;101700.78;;;11.79;100.00
25430;BME280;13360;48.152;-1.788;2022-12-29T09:36:50;101721.53;;;11.92;100.00
25430;BME280;13360;48.152;-1.788;2022-12-29T09:39:15;101748.31;;;12.07;100.00
25430;BME280;13360;48.152;-1.788;2022-12-29T09:44:48;101751.31;;;12.20;100.00
25430;BME280;13360;48.152;-1.788;2022-12-29T09:47:18;101738.00;;;12.23;100.00
25430;BME280;13360;48.152;-1.788;2022-12-29T09:49:49;101689.03;;;12.13;100.00
25430;BME280;13360;48.152;-1.788;2022-12-29T09:52:26;101708.66;;;12.21;100.00
25430;BME280;13360;48.152;-1.788;2022-12-29T09:57:34;101743.22;;;12.34;100.00
25430;BME280;13360;48.152;-1.788;2022-12-29T10:02:55;101727.50;;;12.19;100.00
25430;BME280;13360;48.152;-1.788;2022-12-29T10:05:35;101766.53;;;12.23;100.00
25430;BME280;13360;48.152;-1.788;2022-12-29T10:08:56;101750.25;;;12.11;100.00
25430;BME280;13360;48.152;-1.788;2022-12-29T10:11:23;101779.03;;;12.20;100.00
25430;BME280;13360;48.152;-1.788;2022-12-29T10:21:59;101827.75;;;12.21;100.00
25430;BME280;13360;48.152;-1.788;2022-12-29T10:24:29;101819.16;;;12.23;100.00
25430;BME280;13360;48.152;-1.788;2022-12-29T10:26:57;101831.91;;;12.29;100.00
25430;BME280;13360;48.152;-1.788;2022-12-29T10:29:28;101838.53;;;12.33;100.00
25430;BME280;13360;48.152;-1.788;2022-12-29T10:32:00;101864.53;;;12.42;100.00
25430;BME280;13360;48.152;-1.788;2022-12-29T10:34:37;101841.56;;;12.42;100.00
25430;BME280;13360;48.152;-1.788;2022-12-29T10:37:12;101778.16;;;12.30;100.00
25430;BME280;13360;48.152;-1.788;2022-12-29T10:39:53;101733.84;;;12.30;100.00
25430;BME280;13360;48.152;-1.788;2022-12-29T10:42:28;101721.38;;;12.33;100.00
25430;BME280;13360;48.152;-1.788;2022-12-29T10:44:58;101711.06;;;12.38;100.00
25430;BME280;13360;48.152;-1.788;2022-12-29T10:47:29;101714.59;;;12.49;100.00
25430;BME280;13360;48.152;-1.788;2022-12-29T10:49:55;101697.72;;;12.50;100.00
25430;BME280;13360;48.152;-1.788;2022-12-29T10:52:24;101658.94;;;12.45;100.00
25430;BME280;13360;48.152;-1.788;2022-12-29T10:55:02;101636.75;;;12.50;100.00
25430;BME280;13360;48.152;-1.788;2022-12-29T10:57:32;101623.16;;;12.49;100.00
25430;BME280;13360;48.152;-1.788;2022-12-29T10:59:59;101612.66;;;12.51;100.00
25430;BME280;13360;48.152;-1.788;2022-12-29T11:07:59;101552.53;;;12.46;100.00
25430;BME280;13360;48.152;-1.788;2022-12-29T11:15:44;101482.97;;;12.48;100.00
25430;BME280;13360;48.152;-1.788;2022-12-29T11:18:37;101470.97;;;12.58;100.00
25430;BME280;13360;48.152;-1.788;2022-12-29T11:21:46;101483.41;;;12.60;100.00
25430;BME280;13360;48.152;-1.788;2022-12-29T11:24:01;101471.22;;;12.61;100.00
25430;BME280;13360;48.152;-1.788;2022-12-29T11:26:28;101450.69;;;12.62;100.00
25430;BME280;13360;48.152;-1.788;2022-12-29T11:31:49;101452.28;;;12.68;100.00
25430;BME280;13360;48.152;-1.788;2022-12-29T11:34:35;101419.66;;;12.60;100.00
25430;BME280;13360;48.152;-1.788;2022-12-29T11:37:03;101408.06;;;12.58;100.00
25430;BME280;13360;48.152;-1.788;2022-12-29T11:39:37;101385.00;;;12.39;100.00
25430;BME280;13360;48.152;-1.788;2022-12-29T11:42:06;101372.69;;;12.50;100.00
25430;BME280;13360;48.152;-1.788;2022-12-29T11:44:41;101363.78;;;12.53;100.00
25430;BME280;13360;48.152;-1.788;2022-12-29T11:47:10;101354.44;;;12.44;100.00
25430;BME280;13360;48.152;-1.788;2022-12-29T11:49:37;101334.47;;;12.47;100.00
25430;BME280;13360;48.152;-1.788;2022-12-29T11:52:03;101341.63;;;12.53;100.00
25430;BME280;13360;48.152;-1.788;2022-12-29T11:54:34;101336.59;;;12.55;100.00
25430;BME280;13360;48.152;-1.788;2022-12-29T11:57:11;101341.25;;;12.60;100.00
25430;BME280;13360;48.152;-1.788;2022-12-29T11:59:41;101345.97;;;12.59;100.00
25430;BME280;13360;48.152;-1.788;2022-12-29T12:04:44;101337.19;;;12.52;100.00
25430;BME280;13360;48.152;-1.788;2022-12-29T12:07:36;101336.59;;;12.55;100.00
25430;BME280;13360;48.152;-1.788;2022-12-29T12:10:03;101333.31;;;12.53;100.00
25430;BME280;13360;48.152;-1.788;2022-12-29T12:12:35;101342.06;;;12.60;100.00
25430;BME280;13360;48.152;-1.788;2022-12-29T12:15:03;101349.50;;;12.65;100.00
25430;BME280;13360;48.152;-1.788;2022-12-29T12:17:32;101364.16;;;12.70;100.00
25430;BME280;13360;48.152;-1.788;2022-12-29T12:20:14;101324.41;;;12.56;100.00
25430;BME280;13360;48.152;-1.788;2022-12-29T12:22:48;101300.09;;;12.48;100.00
25430;BME280;13360;48.152;-1.788;2022-12-29T12:25:21;101281.91;;;12.42;100.00
25430;BME280;13360;48.152;-1.788;2022-12-29T12:28:00;101281.25;;;12.50;100.00
25430;BME280;13360;48.152;-1.788;2022-12-29T12:30:36;101302.16;;;12.61;100.00
25430;BME280;13360;48.152;-1.788;2022-12-29T12:43:37;101274.25;;;12.76;100.00
25430;BME280;13360;48.152;-1.788;2022-12-29T12:54:36;101222.09;;;12.78;100.00
25430;BME280;13360;48.152;-1.788;2022-12-29T12:59:49;101216.56;;;12.78;100.00
25430;BME280;13360;48.152;-1.788;2022-12-29T13:07:37;101212.75;;;12.74;100.00
25430;BME280;13360;48.152;-1.788;2022-12-29T13:18:36;101240.75;;;12.73;100.00
25430;BME280;13360;48.152;-1.788;2022-12-29T13:21:33;101229.59;;;12.59;100.00
25430;BME280;13360;48.152;-1.788;2022-12-29T13:24:15;101284.50;;;12.76;100.00
25430;BME280;13360;48.152;-1.788;2022-12-29T13:26:50;101312.84;;;12.73;100.00
25430;BME280;13360;48.152;-1.788;2022-12-29T13:31:58;101368.78;;;12.75;100.00
25430;BME280;13360;48.152;-1.788;2022-12-29T13:37:04;101376.06;;;12.71;100.00
25430;BME280;13360;48.152;-1.788;2022-12-29T13:39:55;101388.81;;;12.67;100.00
25430;BME280;13360;48.152;-1.788;2022-12-29T13:42:23;101414.56;;;12.72;100.00
25430;BME280;13360;48.152;-1.788;2022-12-29T13:45:02;101425.34;;;12.74;100.00
25430;BME280;13360;48.152;-1.788;2022-12-29T13:47:35;101436.59;;;12.59;100.00
25430;BME280;13360;48.152;-1.788;2022-12-29T13:50:04;101464.31;;;12.59;100.00
25430;BME280;13360;48.152;-1.788;2022-12-29T13:52:36;101471.78;;;12.58;100.00
25430;BME280;13360;48.152;-1.788;2022-12-29T13:57:53;101494.41;;;12.70;100.00
25430;BME280;13360;48.152;-1.788;2022-12-29T14:00:21;101509.91;;;12.71;100.00
25430;BME280;13360;48.152;-1.788;2022-12-29T14:06:11;101489.50;;;12.62;100.00
25430;BME280;13360;48.152;-1.788;2022-12-29T14:08:37;101501.59;;;12.71;100.00
25430;BME280;13360;48.152;-1.788;2022-12-29T14:11:09;101512.03;;;12.79;100.00
25430;BME280;13360;48.152;-1.788;2022-12-29T14:13:38;101508.69;;;12.82;100.00
25430;BME280;13360;48.152;-1.788;2022-12-29T14:16:05;101463.50;;;12.82;100.00
25430;BME280;13360;48.152;-1.788;2022-12-29T14:18:32;101447.47;;;12.79;100.00
25430;BME280;13360;48.152;-1.788;2022-12-29T14:21:31;101440.13;;;12.88;100.00
25430;BME280;13360;48.152;-1.788;2022-12-29T14:24:26;101412.38;;;12.93;100.00
25430;BME280;13360;48.152;-1.788;2022-12-29T14:26:52;101411.78;;;12.96;100.00
25430;BME280;13360;48.152;-1.788;2022-12-29T14:31:49;101394.50;;;12.80;100.00
25430;BME280;13360;48.152;-1.788;2022-12-29T14:39:38;101538.72;;;12.75;100.00
25430;BME280;13360;48.152;-1.788;2022-12-29T14:42:14;101546.09;;;12.85;100.00
25430;BME280;13360;48.152;-1.788;2022-12-29T14:44:50;101563.25;;;12.87;100.00
25430;BME280;13360;48.152;-1.788;2022-12-29T14:47:36;101569.31;;;12.89;100.00